默认 日期 大小 文件数 浏览量 最新下载 xml
huge huge磁力链接相关资源由用户搜索指令自动获取,结果来源于网络,本站不存储任何资料,亦不承担任何责任,请于24小时内删除,搜索到14496个磁力,显示前4000条数据,用时6ms。
    {"p4l.nfo": 4065, "file_id.diz": 193, "img_5971.jpg": 810427, "img_5972.jpg": 1210247, "img_5973.jpg": 1066047, "img_5974.jpg": 1757207, "img_5975.jpg": 920659, "img_5976.jpg": 1153792, "img_5977.jpg": 1098979, "img_5978.jpg": 860511, "img_5979.jpg": ...
创建时间: 2018-11-07 07:04:14 大小:96.84 MB 文件数量:123 热度:21 最近下载:2025-10-15 21:54:02
    {"Molly Mae.mp4": 439580192, "Maya Bijou.mp4": 603437279, "Cadence Lux.mp4": 505080490, "Khloe Kapri.mp4": 468108885, "Alice Merchesi.mp4": 420758212, "Jade Amber, Stoney Lynn.mp4": 416368230}
创建时间: 2018-11-07 07:49:34 大小:2.66 GB 文件数量:6 热度:17 最近下载:2024-08-30 11:19:02
    {"Elaina-Gregory-HD_26603_Large.wmv": 389596389}
创建时间: 2018-11-07 08:23:14 大小:371.55 MB 文件数量:1 热度:18 最近下载:2025-08-02 08:34:08
    {"krisskiss.17.10.09.horny.fuck.huge.cumshot[N1C].mp4": 848928567}
创建时间: 2018-11-07 08:55:53 大小:809.6 MB 文件数量:1 热度:14 最近下载:2025-04-07 20:14:03
    {"RARBG.to.nfo": 32, "LegalPorno - Young latina slut Alice Alcantara roughed up and DAPed by three huge cocks.mp4": 1070929536}
创建时间: 2018-11-07 09:06:24 大小:1021.32 MB 文件数量:2 热度:43 最近下载:2025-08-01 07:34:01
    {"Nas - Stillmatic.rar": 70448838, "Mya - Free (Acapella).mp3": 6150272, "666 - Amokk (Acapella).mp3": 4261271, "666 - Bomba (Acapella).mp3": 1230231, "666 - Devil (Acapella).mp3": 2852749, "Big L - MVP (Acapella).mp3": 2512591, "Common - Go (Acapella).mp3 ...
创建时间: 2018-11-07 09:06:43 大小:6.37 GB 文件数量:1386 热度:20 最近下载:2025-10-11 11:28:02
    {"The Most Trusted VPN.url": 153, "The Best Video Game Sale.url": 130, "Torrent Downloaded From 1337x.to.txt": 36, "Torrent Downloaded From Katcr.co.txt": 52, "Cheatting Wife Sucks Young & Hot Sissy Girl Huge Dick SD XXX P2P.mp4": 101854068}
创建时间: 2018-11-07 09:14:45 大小:97.14 MB 文件数量:5 热度:18 最近下载:2025-08-02 10:10:01
    {"josie jagger.mp4": 286072565, "nicki ortega.mp4": 458452863, "cassidy klein.mp4": 368560406, "hollie shields.mp4": 331249477, "natalia mendez.mp4": 290382907}
创建时间: 2018-11-07 09:30:14 大小:1.62 GB 文件数量:5 热度:30 最近下载:2024-07-24 06:10:01
    {"Unsorted": {"Alan Watts - Images.mp3": 13736141, "Alan Watts - Nonsense.mp3": 13760116, "Alan Watts - Zen Tales.mp3": 41238285, "Alan Watts - Coincidence.mp3": 11984229, "Alan Watts - Diamond Way.mp3": 12544329, "Alan Watts - Transcending.mp3": 13000526, ...
创建时间: 2018-11-07 09:44:03 大小:3.58 GB 文件数量:432 热度:10 最近下载:2025-02-13 04:48:02
    ... - Desiree Suck And Stroke A Huge Cock XXX AdultP2P.mp4": 315919139}
创建时间: 2018-11-07 10:15:16 大小:301.28 MB 文件数量:5 热度:13 最近下载:2024-10-16 00:45:01
    {"DontBreakMe - Arya Fae (Tiny Spinner Craves Huge Cock) 01.30.17.mp4": 342528568}
创建时间: 2018-11-07 10:35:04 大小:326.66 MB 文件数量:1 热度:25 最近下载:2025-10-02 05:19:02
    {"Mom Has A Huge Rack 2.mp4": 1460931402, "Torrent Downloaded From ExtraTorrent.cc.txt": 338}
创建时间: 2018-11-07 11:15:29 大小:1.36 GB 文件数量:2 热度:17 最近下载:2025-08-01 21:21:11
    {"Sample": {"ktr.ald.12.07.05.innocent.kitty.adela.wants.a.huge.cock.mp4": 24056352}, "RARBG.com.txt": 34, "ktr.ald.12.07.05.innocent.kitty.adela.wants.a.huge.cock.mp4": 371463552, "ktr.ald.12.07.05.innocent.kitty.adela.wants.a.huge.cock.nfo": 6991}
创建时间: 2018-11-07 11:20:16 大小:377.2 MB 文件数量:4 热度:14 最近下载:2025-07-07 06:42:02
    {"Silverdust.gif": 496757, "To help us keep going": 279, "Asian ASIA ZO Gets Fucked and Facialed by Huge Black Cock.mp4": 323013407, "Asian ASIA ZO Gets Fucked and Facialed by Huge Black Cock.mp4.png": 2558180}
创建时间: 2018-11-07 11:24:16 大小:310.96 MB 文件数量:4 热度:64 最近下载:2025-09-17 02:46:09
    ... , "MyDirtyMaid - Ashley Barbie - Maid With Huge Ass Gets Fucked.mp4": 508187342}
创建时间: 2018-11-07 11:32:26 大小:502.3 MB 文件数量:10 热度:51 最近下载:2025-08-24 15:03:02
    {"BLACKED_PRESLEY-HEART_720P.mp4": 2364218751}
创建时间: 2018-11-07 12:08:36 大小:2.2 GB 文件数量:1 热度:26 最近下载:2025-08-01 05:16:05
    {"1.jpg": 410395, "front.jpg": 134529, "RARBG.to.nfo": 32, "exxxscfhd22-pbu.mp4": 1269850726, "exxxscfhd22-pbu.nfo": 1018}
创建时间: 2018-11-07 12:31:22 大小:1.18 GB 文件数量:5 热度:13 最近下载:2025-07-08 23:03:04
    {"OReilly HTML5 Hacks (2013).pdf": 48439042, "OReilly HTML5 Media (2011).pdf": 11666305, "Wiley Smashing HTML5 (2011).pdf": 6472520, "OReilly What Is HTML5 (2011).pdf": 3586982, "Apress Pro HTML5 Games (2012).pdf": 13067629, "OReilly HTML5 Cookbook (2011). ...
创建时间: 2018-11-07 14:10:42 大小:1.41 GB 文件数量:96 热度:8 最近下载:2024-07-27 20:25:02
    {"Scene 1 - Goldie.mp4": 437243092, "Scene 2 - Henley Hart.mp4": 355823855, "Scene 3 - Jaye Austin.mp4": 545009305, "Scene 4 - Jessie Young.mp4": 356205899, "Scene 5 - Kimmy Granger.mp4": 733864596}
创建时间: 2018-11-07 14:50:43 大小:2.26 GB 文件数量:5 热度:23 最近下载:2025-05-06 20:45:02
    {"Samantha_B_plays_with_huge_dildo_gets_ass_fucked_gg526_exclusive__1.mp4": 1544345103}
创建时间: 2018-11-07 15:26:02 大小:1.44 GB 文件数量:1 热度:48 最近下载:2025-10-05 21:25:02